createdAt,value
2023-05-14T00:01:12.970Z,12.82
2023-05-14T00:03:44.185Z,12.82
2023-05-14T00:06:15.269Z,12.82
2023-05-14T00:08:46.114Z,12.81
2023-05-14T00:11:16.829Z,12.81
2023-05-14T00:13:50.531Z,12.80
2023-05-14T00:16:21.298Z,12.80
2023-05-14T00:18:52.259Z,12.80
2023-05-14T00:21:23.024Z,12.80
2023-05-14T00:23:53.837Z,12.80
2023-05-14T00:26:24.644Z,12.80
2023-05-14T00:28:58.231Z,12.79
2023-05-14T00:31:28.996Z,12.79
2023-05-14T00:34:00.360Z,12.78
2023-05-14T00:36:31.606Z,12.76
2023-05-14T00:39:02.457Z,12.76
2023-05-14T00:41:33.269Z,12.75
2023-05-14T00:44:06.970Z,12.75
2023-05-14T00:46:37.770Z,12.75
2023-05-14T00:49:09.194Z,12.75
2023-05-14T00:51:40.278Z,12.75
2023-05-14T00:54:11.458Z,12.73
2023-05-14T00:56:42.251Z,12.74
2023-05-14T00:59:15.926Z,12.72
2023-05-14T01:01:46.765Z,12.71
2023-05-14T01:04:17.714Z,12.72
2023-05-14T01:06:57.346Z,12.72
2023-05-14T01:09:33.150Z,12.71
2023-05-14T01:12:11.111Z,12.71
2023-05-14T01:14:54.998Z,12.71
2023-05-14T01:17:27.893Z,12.69
2023-05-14T01:19:59.901Z,12.71
2023-05-14T01:22:33.235Z,12.72
2023-05-14T01:25:04.073Z,12.73
2023-05-14T01:27:41.725Z,12.78
2023-05-14T01:30:19.946Z,12.78
2023-05-14T01:32:54.277Z,12.81
2023-05-14T01:35:27.699Z,12.84
2023-05-14T01:38:04.252Z,12.86
2023-05-14T01:40:36.593Z,12.87
2023-05-14T01:43:08.133Z,12.91
2023-05-14T01:45:40.408Z,12.94
2023-05-14T01:48:11.346Z,12.95
2023-05-14T01:50:42.229Z,12.98
2023-05-14T01:53:15.624Z,12.99
2023-05-14T01:55:46.542Z,13.01
2023-05-14T01:58:17.492Z,13.02
2023-05-14T02:00:48.418Z,13.03
2023-05-14T02:03:19.202Z,13.04
2023-05-14T02:05:50.132Z,13.04
2023-05-14T02:08:23.465Z,13.04
2023-05-14T02:10:54.410Z,13.06
2023-05-14T02:13:26.797Z,13.07
2023-05-14T02:15:57.722Z,13.07
2023-05-14T02:18:29.241Z,13.06
2023-05-14T02:21:00.260Z,13.07
2023-05-14T02:23:40.862Z,13.06
2023-05-14T02:26:13.142Z,13.05
2023-05-14T02:28:43.919Z,13.05
2023-05-14T02:31:17.957Z,13.03
2023-05-14T02:33:48.659Z,13.03
2023-05-14T02:36:19.443Z,13.02
2023-05-14T02:38:52.665Z,13.00
2023-05-14T02:41:23.441Z,12.99
2023-05-14T02:43:56.095Z,12.99
2023-05-14T02:46:27.166Z,13.00
2023-05-14T02:48:59.110Z,13.00
2023-05-14T02:51:30.045Z,13.00
2023-05-14T02:54:03.340Z,12.99
2023-05-14T02:56:34.128Z,12.98
2023-05-14T02:59:04.871Z,12.96
2023-05-14T03:01:36.143Z,12.95
2023-05-14T03:04:08.090Z,12.92
2023-05-14T03:06:38.914Z,12.92
2023-05-14T03:09:12.487Z,12.91
2023-05-14T03:11:43.438Z,12.91
2023-05-14T03:14:14.251Z,12.89
2023-05-14T03:16:45.079Z,12.89
2023-05-14T03:19:16.026Z,12.89
2023-05-14T03:21:48.023Z,12.90
2023-05-14T03:24:21.393Z,12.90
2023-05-14T03:26:52.188Z,12.89
2023-05-14T03:29:23.079Z,12.90
2023-05-14T03:31:54.874Z,12.90
2023-05-14T03:34:25.835Z,12.91
2023-05-14T03:36:56.525Z,12.91
2023-05-14T03:39:29.953Z,12.92
2023-05-14T03:42:00.690Z,12.94
2023-05-14T03:44:31.626Z,12.96
2023-05-14T03:47:02.418Z,13.00
2023-05-14T03:49:33.641Z,13.03
2023-05-14T03:52:04.565Z,13.07
2023-05-14T03:54:38.889Z,13.12
2023-05-14T03:57:09.764Z,13.16
2023-05-14T03:59:40.557Z,13.21
2023-05-14T04:02:11.451Z,13.25
2023-05-14T04:04:42.725Z,13.30
2023-05-14T04:07:13.572Z,13.36
2023-05-14T04:09:47.010Z,13.38
2023-05-14T04:12:17.700Z,13.37
2023-05-14T04:14:48.480Z,13.42
2023-05-14T04:17:19.169Z,13.42
2023-05-14T04:19:49.910Z,13.42
2023-05-14T04:22:20.666Z,13.43
2023-05-14T04:24:54.067Z,13.44
2023-05-14T04:27:25.129Z,13.46
2023-05-14T04:29:55.928Z,13.49
2023-05-14T04:32:26.726Z,13.54
2023-05-14T04:34:57.577Z,13.59
2023-05-14T04:37:28.352Z,13.67
2023-05-14T04:40:02.004Z,13.76
2023-05-14T04:42:35.976Z,13.86
2023-05-14T04:45:07.369Z,13.98
2023-05-14T04:47:38.396Z,14.13
2023-05-14T04:50:10.995Z,14.29
2023-05-14T04:52:42.285Z,14.45
2023-05-14T04:55:16.160Z,14.72
2023-05-14T04:57:46.876Z,14.89
2023-05-14T05:00:18.348Z,15.04
2023-05-14T05:02:49.090Z,15.17
2023-05-14T05:05:19.882Z,15.29
2023-05-14T05:07:50.665Z,15.40
2023-05-14T05:10:24.606Z,15.53
2023-05-14T05:12:55.590Z,15.77
2023-05-14T05:15:26.852Z,16.12
2023-05-14T05:17:57.729Z,16.57
2023-05-14T05:20:28.610Z,17.10
2023-05-14T05:22:59.896Z,17.63
2023-05-14T05:25:33.287Z,18.17
2023-05-14T05:28:04.065Z,18.73
2023-05-14T05:30:35.003Z,19.23
2023-05-14T05:33:05.681Z,19.66
2023-05-14T05:35:36.429Z,19.99
2023-05-14T05:38:07.651Z,20.19
2023-05-14T05:40:41.123Z,20.25
2023-05-14T05:43:12.010Z,20.19
2023-05-14T05:45:42.789Z,20.01
2023-05-14T05:48:13.731Z,19.78
2023-05-14T05:50:45.181Z,19.54
2023-05-14T05:53:17.141Z,19.26
2023-05-14T05:55:51.882Z,18.95
2023-05-14T05:58:22.779Z,18.67
2023-05-14T06:00:53.697Z,18.41
2023-05-14T06:03:24.799Z,18.15
2023-05-14T06:05:55.687Z,17.95
2023-05-14T06:08:26.439Z,17.77
2023-05-14T06:10:59.843Z,17.59
2023-05-14T06:13:30.553Z,17.43
2023-05-14T06:16:01.336Z,17.27
2023-05-14T06:18:32.203Z,17.12
2023-05-14T06:21:03.139Z,16.99
2023-05-14T06:23:33.984Z,16.85
2023-05-14T06:26:07.398Z,16.72
2023-05-14T06:28:38.310Z,16.61
2023-05-14T06:31:09.147Z,16.50
2023-05-14T06:33:40.091Z,16.42
2023-05-14T06:36:11.914Z,16.36
2023-05-14T06:38:42.602Z,16.29
2023-05-14T06:41:16.005Z,16.25
2023-05-14T06:43:46.655Z,16.19
2023-05-14T06:46:17.348Z,16.17
2023-05-14T06:48:48.136Z,16.13
2023-05-14T06:51:19.154Z,16.09
2023-05-14T06:53:49.977Z,16.06
2023-05-14T06:56:24.036Z,16.05
2023-05-14T06:58:54.804Z,16.06
2023-05-14T07:01:25.650Z,16.06
2023-05-14T07:03:56.455Z,16.08
2023-05-14T07:06:27.276Z,16.07
2023-05-14T07:08:58.078Z,16.08
2023-05-14T07:11:31.607Z,16.08
2023-05-14T07:14:02.420Z,16.10
2023-05-14T07:16:33.282Z,16.08
2023-05-14T07:19:04.110Z,16.07
2023-05-14T07:21:35.020Z,16.06
2023-05-14T07:24:05.854Z,16.06
2023-05-14T07:26:39.571Z,16.07
2023-05-14T07:29:10.964Z,16.08
2023-05-14T07:31:41.814Z,16.07
2023-05-14T07:34:13.120Z,16.09
2023-05-14T07:36:44.128Z,16.09
2023-05-14T07:39:14.934Z,16.09
2023-05-14T07:41:48.345Z,16.07
2023-05-14T07:44:19.124Z,16.05
2023-05-14T07:46:49.993Z,16.02
2023-05-14T07:49:20.781Z,16.01
2023-05-14T07:51:51.630Z,16.02
2023-05-14T07:54:22.273Z,16.02
2023-05-14T07:56:55.717Z,15.99
2023-05-14T07:59:26.580Z,15.97
2023-05-14T08:01:57.925Z,15.94
2023-05-14T08:04:28.741Z,15.93
2023-05-14T08:06:59.789Z,15.93
2023-05-14T08:09:30.540Z,15.94
2023-05-14T08:12:04.203Z,15.96
2023-05-14T08:14:34.954Z,16.00
2023-05-14T08:17:06.464Z,16.05
2023-05-14T08:19:37.190Z,16.09
2023-05-14T08:22:08.429Z,16.11
2023-05-14T08:24:39.406Z,16.08
2023-05-14T08:27:12.891Z,16.12
2023-05-14T08:29:43.534Z,16.11
2023-05-14T08:32:22.617Z,16.10
2023-05-14T08:34:54.826Z,16.08
2023-05-14T08:37:25.479Z,16.06
2023-05-14T08:39:56.663Z,16.03
2023-05-14T08:42:31.828Z,16.01
2023-05-14T08:45:05.044Z,15.92
2023-05-14T08:47:37.518Z,15.86
2023-05-14T08:50:10.145Z,15.78
2023-05-14T08:52:41.347Z,15.69
2023-05-14T08:55:15.060Z,15.62
2023-05-14T08:57:48.915Z,15.55
2023-05-14T09:00:20.016Z,15.46
2023-05-14T09:02:51.832Z,15.40
2023-05-14T09:05:24.077Z,15.28
2023-05-14T09:07:55.208Z,15.23
2023-05-14T09:10:26.653Z,15.16
2023-05-14T09:13:00.425Z,15.11
2023-05-14T09:15:32.386Z,15.03
2023-05-14T09:18:03.321Z,14.97
2023-05-14T09:20:34.927Z,14.97
2023-05-14T09:23:05.773Z,14.96
2023-05-14T09:25:36.674Z,14.97
2023-05-14T09:28:12.243Z,14.96
2023-05-14T09:30:42.946Z,14.96
2023-05-14T09:33:13.697Z,14.99
2023-05-14T09:35:44.907Z,14.99
2023-05-14T09:38:16.027Z,15.05
2023-05-14T09:40:46.731Z,15.09
2023-05-14T09:43:20.244Z,15.09
2023-05-14T09:45:50.920Z,15.09
2023-05-14T09:48:22.743Z,15.11
2023-05-14T09:50:53.469Z,15.11
2023-05-14T09:53:24.430Z,15.09
2023-05-14T09:55:55.254Z,15.09
2023-05-14T09:58:29.867Z,15.14
2023-05-14T10:01:02.069Z,15.17
2023-05-14T10:03:33.795Z,15.25
2023-05-14T10:06:10.983Z,15.27
2023-05-14T10:08:46.827Z,15.32
2023-05-14T10:11:25.287Z,15.34
2023-05-14T10:14:06.220Z,15.35
2023-05-14T10:16:38.315Z,15.36
2023-05-14T10:19:12.327Z,15.36
2023-05-14T10:21:45.490Z,15.34
2023-05-14T10:24:16.968Z,15.34
2023-05-14T10:26:48.376Z,15.33
2023-05-14T10:29:21.795Z,15.37
2023-05-14T10:31:54.591Z,15.45
2023-05-14T10:34:37.945Z,15.54
2023-05-14T10:37:11.255Z,15.64
2023-05-14T10:39:50.062Z,15.73
2023-05-14T10:42:23.623Z,15.84
2023-05-14T10:44:59.066Z,15.94
2023-05-14T10:47:31.208Z,16.05
2023-05-14T10:50:04.049Z,16.14
2023-05-14T10:52:35.409Z,16.18
2023-05-14T10:55:08.028Z,16.24
2023-05-14T10:57:41.505Z,16.25
2023-05-14T11:00:16.880Z,16.33
2023-05-14T11:02:48.090Z,16.39
2023-05-14T11:05:20.042Z,16.47
2023-05-14T11:07:52.566Z,16.57
2023-05-14T11:10:26.141Z,16.64
2023-05-14T11:12:57.066Z,16.65
2023-05-14T11:15:30.637Z,16.66
2023-05-14T11:18:01.287Z,16.67
2023-05-14T11:20:33.103Z,16.68
2023-05-14T11:23:03.878Z,16.68
2023-05-14T11:25:34.800Z,16.68
2023-05-14T11:28:05.575Z,16.65
2023-05-14T11:30:39.447Z,16.63
2023-05-14T11:33:10.447Z,16.58
2023-05-14T11:35:42.456Z,16.56
2023-05-14T11:38:17.776Z,16.54
2023-05-14T11:40:56.103Z,16.49
2023-05-14T11:43:29.572Z,16.42
2023-05-14T11:46:03.103Z,16.34
2023-05-14T11:48:36.393Z,16.27
2023-05-14T11:51:08.188Z,16.19
2023-05-14T11:53:38.973Z,16.14
2023-05-14T11:56:10.166Z,16.05
2023-05-14T11:58:41.024Z,15.94
2023-05-14T12:01:17.103Z,15.88
2023-05-14T12:03:48.039Z,15.79
2023-05-14T12:06:18.850Z,15.69
2023-05-14T12:08:51.945Z,15.65
2023-05-14T12:11:24.763Z,15.59
2023-05-14T12:13:56.590Z,15.56
2023-05-14T12:16:36.205Z,15.54
2023-05-14T12:19:09.294Z,15.52
2023-05-14T12:21:40.952Z,15.52
2023-05-14T12:24:14.682Z,15.49
2023-05-14T12:26:47.966Z,15.54
2023-05-14T12:29:19.786Z,15.54
2023-05-14T12:31:53.840Z,15.55
2023-05-14T12:34:24.711Z,15.56
2023-05-14T12:36:55.619Z,15.54
2023-05-14T12:39:26.499Z,15.54
2023-05-14T12:41:57.334Z,15.52
2023-05-14T12:44:28.307Z,15.49
2023-05-14T12:47:01.836Z,15.45
2023-05-14T12:49:32.859Z,15.41
2023-05-14T12:52:22.359Z,15.35
2023-05-14T12:54:54.333Z,15.28
2023-05-14T12:57:25.061Z,15.24
2023-05-14T12:59:55.873Z,15.20
2023-05-14T13:02:29.458Z,15.16
2023-05-14T13:05:02.990Z,15.14
2023-05-14T13:07:34.698Z,15.14
2023-05-14T13:10:06.026Z,15.14
2023-05-14T13:12:37.151Z,15.16
2023-05-14T13:15:09.173Z,15.17
2023-05-14T13:17:42.729Z,15.20
2023-05-14T13:20:14.550Z,15.22
2023-05-14T13:22:45.468Z,15.24
2023-05-14T13:25:16.348Z,15.27
2023-05-14T13:27:47.457Z,15.29
2023-05-14T13:30:19.937Z,15.34
2023-05-14T13:32:53.345Z,15.36
2023-05-14T13:35:24.463Z,15.39
2023-05-14T13:37:55.415Z,15.40
2023-05-14T13:40:26.404Z,15.42
2023-05-14T13:42:57.103Z,15.43
2023-05-14T13:45:27.930Z,15.44
2023-05-14T13:48:01.344Z,15.45
2023-05-14T13:50:32.166Z,15.48
2023-05-14T13:53:02.800Z,15.48
2023-05-14T13:55:33.631Z,15.48
2023-05-14T13:58:05.291Z,15.45
2023-05-14T14:00:36.188Z,15.43
2023-05-14T14:03:10.187Z,15.40
2023-05-14T14:05:41.169Z,15.39
2023-05-14T14:08:22.534Z,15.38
2023-05-14T14:10:55.826Z,15.39
2023-05-14T14:13:29.854Z,15.38
2023-05-14T14:16:00.503Z,15.38
2023-05-14T14:18:33.939Z,15.38
2023-05-14T14:21:04.863Z,15.35
2023-05-14T14:23:35.612Z,15.32
2023-05-14T14:26:06.612Z,15.28
2023-05-14T14:28:37.404Z,15.21
2023-05-14T14:31:08.441Z,15.16
2023-05-14T14:33:41.863Z,15.10
2023-05-14T14:36:12.766Z,15.07
2023-05-14T14:38:43.574Z,15.03
2023-05-14T14:41:14.380Z,15.00
2023-05-14T14:43:45.172Z,15.00
2023-05-14T14:46:16.287Z,14.98
2023-05-14T14:48:49.590Z,14.94
2023-05-14T14:51:20.470Z,14.92
2023-05-14T14:53:51.232Z,14.90
2023-05-14T14:56:22.441Z,14.87
2023-05-14T14:58:53.318Z,14.76
2023-05-14T15:01:24.546Z,14.83
2023-05-14T15:03:57.968Z,14.80
2023-05-14T15:06:28.844Z,14.76
2023-05-14T15:08:59.994Z,14.73
2023-05-14T15:11:34.049Z,14.71
2023-05-14T15:14:08.068Z,14.69
2023-05-14T15:16:38.949Z,14.66
2023-05-14T15:19:12.515Z,14.67
2023-05-14T15:21:43.396Z,14.65
2023-05-14T15:24:15.874Z,14.62
2023-05-14T15:26:46.643Z,14.60
2023-05-14T15:29:17.452Z,14.58
2023-05-14T15:31:48.787Z,14.57
2023-05-14T15:34:22.278Z,14.56
2023-05-14T15:36:52.989Z,14.56
2023-05-14T15:39:23.877Z,14.55
2023-05-14T15:41:54.539Z,14.54
2023-05-14T15:44:25.373Z,14.55
2023-05-14T15:46:56.170Z,14.54
2023-05-14T15:49:29.684Z,14.53
2023-05-14T15:52:00.984Z,14.52
2023-05-14T15:54:32.110Z,14.51
2023-05-14T15:57:02.859Z,14.51
2023-05-14T15:59:36.025Z,14.49
2023-05-14T16:02:06.862Z,14.46
2023-05-14T16:04:40.270Z,14.45
2023-05-14T16:07:12.600Z,14.44
2023-05-14T16:09:43.609Z,14.42
2023-05-14T16:12:14.688Z,14.41
2023-05-14T16:14:45.591Z,14.39
2023-05-14T16:17:16.420Z,14.36
2023-05-14T16:19:49.851Z,14.34
2023-05-14T16:22:20.733Z,14.33
2023-05-14T16:24:51.525Z,14.33
2023-05-14T16:27:22.355Z,14.31
2023-05-14T16:29:53.207Z,14.32
2023-05-14T16:32:25.382Z,14.33
2023-05-14T16:34:58.854Z,14.33
2023-05-14T16:37:29.674Z,14.32
2023-05-14T16:40:00.648Z,14.30
2023-05-14T16:42:33.091Z,14.33
2023-05-14T16:45:03.919Z,14.35
2023-05-14T16:47:39.004Z,14.35
2023-05-14T16:50:13.387Z,14.36
2023-05-14T16:52:44.225Z,14.36
2023-05-14T16:55:15.071Z,14.36
2023-05-14T16:57:46.918Z,14.35
2023-05-14T17:00:18.654Z,14.36
2023-05-14T17:02:50.195Z,14.35
2023-05-14T17:05:24.268Z,14.26
2023-05-14T17:07:55.806Z,14.34
2023-05-14T17:10:27.679Z,14.31
2023-05-14T17:12:58.544Z,14.31
2023-05-14T17:15:29.822Z,14.29
2023-05-14T17:18:00.827Z,14.25
2023-05-14T17:20:34.626Z,13.98
2023-05-14T17:23:05.509Z,13.26
2023-05-14T17:25:36.571Z,12.49
2023-05-14T17:28:07.486Z,11.98
2023-05-14T17:30:38.521Z,11.60
2023-05-14T17:33:09.302Z,11.49
2023-05-14T17:35:44.202Z,11.47
2023-05-14T17:38:15.282Z,11.49
2023-05-14T17:40:46.040Z,11.59
2023-05-14T17:43:16.793Z,11.69
2023-05-14T17:48:24.259Z,11.69
2023-05-14T17:50:57.648Z,11.78
2023-05-14T17:53:28.468Z,11.80
2023-05-14T17:55:59.444Z,11.78
2023-05-14T17:58:30.338Z,11.74
2023-05-14T18:01:01.140Z,11.73
2023-05-14T18:03:32.167Z,11.70
2023-05-14T18:06:05.716Z,11.64
2023-05-14T18:08:36.458Z,11.66
2023-05-14T18:11:07.438Z,11.67
2023-05-14T18:13:38.296Z,11.66
2023-05-14T18:16:09.407Z,11.65
2023-05-14T18:18:40.335Z,11.62
2023-05-14T18:21:13.799Z,11.60
2023-05-14T18:23:44.536Z,11.71
2023-05-14T18:26:15.427Z,11.91
2023-05-14T18:28:46.316Z,12.12
2023-05-14T18:31:18.206Z,12.35
2023-05-14T18:33:49.309Z,12.53
2023-05-14T18:36:23.372Z,12.71
2023-05-14T18:38:54.205Z,12.85
2023-05-14T18:41:25.004Z,13.01
2023-05-14T18:43:55.780Z,13.12
2023-05-14T18:46:27.112Z,13.23
2023-05-14T18:48:59.794Z,13.31
2023-05-14T18:51:33.283Z,13.38
2023-05-14T18:54:04.085Z,13.45
2023-05-14T18:56:34.992Z,13.51
2023-05-14T18:59:05.848Z,13.57
2023-05-14T19:01:36.757Z,13.59
2023-05-14T19:04:08.552Z,13.64
2023-05-14T19:06:42.857Z,13.68
2023-05-14T19:09:15.084Z,13.69
2023-05-14T19:11:45.846Z,13.71
2023-05-14T19:14:16.584Z,13.82
2023-05-14T19:16:47.420Z,14.35
2023-05-14T19:19:18.368Z,15.27
2023-05-14T19:21:52.038Z,16.20
2023-05-14T19:24:22.978Z,16.95
2023-05-14T19:26:53.960Z,17.58
2023-05-14T19:29:25.286Z,18.11
2023-05-14T19:31:56.547Z,18.58
2023-05-14T19:34:27.519Z,18.88
2023-05-14T19:37:00.931Z,18.99
2023-05-14T19:39:32.032Z,19.02
2023-05-14T19:42:02.951Z,19.02
2023-05-14T19:44:34.097Z,19.00
2023-05-14T19:47:05.009Z,18.97
2023-05-14T19:49:35.891Z,18.93
2023-05-14T19:52:11.564Z,18.89
2023-05-14T19:54:42.311Z,18.90
2023-05-14T19:57:13.307Z,18.92
2023-05-14T19:59:44.791Z,18.89
2023-05-14T20:02:18.701Z,18.81
2023-05-14T20:04:49.820Z,18.71
2023-05-14T20:07:25.430Z,18.71
2023-05-14T20:09:56.341Z,18.64
2023-05-14T20:12:27.971Z,18.34
2023-05-14T20:14:58.944Z,17.93
2023-05-14T20:17:30.072Z,17.52
2023-05-14T20:20:00.804Z,17.07
2023-05-14T20:22:35.122Z,16.67
2023-05-14T20:25:06.021Z,16.31
2023-05-14T20:27:36.868Z,15.99
2023-05-14T20:30:09.000Z,15.72
2023-05-14T20:32:39.803Z,15.47
2023-05-14T20:35:11.327Z,15.27
2023-05-14T20:37:44.899Z,15.09
2023-05-14T20:40:16.299Z,14.91
2023-05-14T20:42:47.181Z,14.80
2023-05-14T20:45:17.904Z,14.69
2023-05-14T20:47:48.795Z,14.59
2023-05-14T20:50:19.573Z,14.50
2023-05-14T20:52:52.960Z,14.43
2023-05-14T20:55:23.953Z,14.37
2023-05-14T20:57:54.975Z,14.31
2023-05-14T21:00:25.721Z,14.28
2023-05-14T21:02:56.764Z,14.24
2023-05-14T21:05:27.922Z,14.22
2023-05-14T21:08:01.479Z,14.20
2023-05-14T21:10:32.316Z,14.18
2023-05-14T21:13:03.202Z,14.19
2023-05-14T21:15:33.874Z,14.16
2023-05-14T21:18:05.371Z,14.16
2023-05-14T21:20:36.077Z,14.13
2023-05-14T21:23:09.554Z,14.12
2023-05-14T21:25:40.338Z,14.09
2023-05-14T21:28:11.426Z,14.09
2023-05-14T21:30:42.209Z,14.09
2023-05-14T21:33:13.111Z,14.08
2023-05-14T21:35:43.821Z,14.08
2023-05-14T21:38:17.337Z,14.09
2023-05-14T21:40:48.076Z,14.12
2023-05-14T21:43:19.030Z,14.15
2023-05-14T21:45:50.245Z,14.20
2023-05-14T21:48:21.364Z,14.23
2023-05-14T21:50:52.442Z,14.27
2023-05-14T21:53:26.112Z,14.29
2023-05-14T21:55:57.043Z,14.33
2023-05-14T21:58:27.874Z,14.37
2023-05-14T22:00:58.687Z,14.39
2023-05-14T22:03:29.555Z,14.43
2023-05-14T22:06:00.954Z,14.42
2023-05-14T22:08:34.262Z,14.45
2023-05-14T22:11:04.947Z,14.45
2023-05-14T22:13:37.860Z,14.45
2023-05-14T22:16:13.510Z,14.44
2023-05-14T22:18:44.961Z,14.44
2023-05-14T22:21:15.720Z,14.44
2023-05-14T22:23:50.132Z,14.44
2023-05-14T22:26:21.907Z,14.43
2023-05-14T22:28:52.989Z,14.46
2023-05-14T22:31:23.712Z,14.47
2023-05-14T22:33:54.785Z,14.50
2023-05-14T22:36:25.584Z,14.54
2023-05-14T22:38:59.054Z,14.58
2023-05-14T22:41:29.822Z,14.62
2023-05-14T22:44:00.921Z,14.66
2023-05-14T22:46:31.921Z,14.70
2023-05-14T22:49:03.591Z,14.72
2023-05-14T22:51:34.380Z,14.73
2023-05-14T22:54:07.966Z,14.73
2023-05-14T22:56:39.228Z,14.74
2023-05-14T22:59:10.080Z,14.74
2023-05-14T23:01:41.033Z,14.74
2023-05-14T23:04:11.819Z,14.73
2023-05-14T23:06:42.599Z,14.71
2023-05-14T23:09:16.202Z,14.71
2023-05-14T23:11:47.045Z,14.72
2023-05-14T23:14:18.198Z,14.70
2023-05-14T23:16:48.918Z,14.71
2023-05-14T23:19:20.503Z,14.72
2023-05-14T23:21:51.331Z,14.70
2023-05-14T23:24:24.877Z,14.70
2023-05-14T23:26:56.104Z,14.70
2023-05-14T23:29:27.066Z,14.69
2023-05-14T23:31:57.953Z,14.69
2023-05-14T23:34:28.764Z,14.69
2023-05-14T23:36:59.592Z,14.68
2023-05-14T23:39:33.144Z,14.68
2023-05-14T23:42:03.956Z,14.68
2023-05-14T23:44:34.706Z,14.68
2023-05-14T23:47:05.797Z,14.69
2023-05-14T23:49:37.003Z,14.65
2023-05-14T23:52:08.435Z,14.65
2023-05-14T23:54:41.983Z,14.66
2023-05-14T23:57:14.704Z,14.66
2023-05-14T23:59:46.475Z,14.67
